createdAt,value
2018-07-05T00:02:09.978Z,101046.41
2018-07-05T00:04:50.069Z,101046.31
2018-07-05T00:07:30.942Z,101048.88
2018-07-05T00:10:11.007Z,101051.00
2018-07-05T00:12:51.056Z,101046.19
2018-07-05T00:15:31.001Z,101043.97
2018-07-05T00:18:10.936Z,101050.45
2018-07-05T00:20:50.806Z,101059.83
2018-07-05T00:23:30.797Z,101057.23
2018-07-05T00:26:10.754Z,101056.39
2018-07-05T00:28:50.778Z,101055.28
2018-07-05T00:31:30.866Z,101060.41
2018-07-05T00:34:10.988Z,101057.47
2018-07-05T00:36:50.994Z,101061.29
2018-07-05T00:39:31.181Z,101061.29
2018-07-05T00:42:11.306Z,101064.47
2018-07-05T00:44:51.411Z,101056.77
2018-07-05T00:47:31.382Z,101061.52
2018-07-05T00:50:11.481Z,101053.92
2018-07-05T00:52:51.721Z,101057.74
2018-07-05T00:55:31.579Z,101043.64
2018-07-05T00:58:11.623Z,101049.37
2018-07-05T01:00:51.704Z,101054.33
2018-07-05T01:03:31.751Z,101058.58
2018-07-05T01:06:11.747Z,101062.75
2018-07-05T01:08:51.744Z,101055.61
2018-07-05T01:11:31.914Z,101057.82
2018-07-05T01:14:12.274Z,101054.16
2018-07-05T01:16:52.337Z,101051.49
2018-07-05T01:19:32.409Z,101050.96
2018-07-05T01:22:12.415Z,101057.72
2018-07-05T01:24:52.443Z,101052.84
2018-07-05T01:27:36.598Z,101056.66
2018-07-05T01:30:17.563Z,101056.91
2018-07-05T01:32:57.455Z,101050.77
2018-07-05T01:35:37.816Z,101058.14
2018-07-05T01:38:18.084Z,101056.25
2018-07-05T01:40:58.346Z,101055.94
2018-07-05T01:43:38.535Z,101058.69
2018-07-05T01:46:18.516Z,101056.14
2018-07-05T01:48:58.633Z,101057.33
2018-07-05T01:51:38.776Z,101067.03
2018-07-05T01:54:18.836Z,101063.00
2018-07-05T01:56:58.767Z,101058.26
2018-07-05T01:59:38.933Z,101056.12
2018-07-05T02:02:18.957Z,101058.45
2018-07-05T02:04:58.996Z,101054.69
2018-07-05T02:07:39.008Z,101061.96
2018-07-05T02:10:19.052Z,101060.37
2018-07-05T02:12:59.161Z,101059.67
2018-07-05T02:15:39.320Z,101060.02
2018-07-05T02:18:19.308Z,101063.91
2018-07-05T02:21:03.078Z,101063.72
2018-07-05T02:23:43.334Z,101065.20
2018-07-05T02:26:23.566Z,101069.73
2018-07-05T02:29:03.746Z,101071.11
2018-07-05T02:31:43.931Z,101072.48
2018-07-05T02:34:23.933Z,101075.84
2018-07-05T02:37:04.702Z,101064.98
2018-07-05T02:39:50.172Z,101070.64
2018-07-05T02:42:30.234Z,101067.06
2018-07-05T02:45:10.230Z,101067.59
2018-07-05T02:47:50.321Z,101058.77
2018-07-05T02:50:30.418Z,101066.53
2018-07-05T02:53:10.569Z,101061.16
2018-07-05T02:55:50.571Z,101059.48
2018-07-05T02:58:30.573Z,101061.56
2018-07-05T03:01:10.736Z,101063.27
2018-07-05T03:03:51.001Z,101063.11
2018-07-05T03:06:31.020Z,101059.01
2018-07-05T03:09:11.073Z,101064.40
2018-07-05T03:11:51.439Z,101059.44
2018-07-05T03:14:31.410Z,101067.55
2018-07-05T03:17:11.655Z,101066.11
2018-07-05T03:19:51.747Z,101061.83
2018-07-05T03:22:31.852Z,101070.33
2018-07-05T03:25:11.990Z,101076.02
2018-07-05T03:27:51.963Z,101078.53
2018-07-05T03:30:32.117Z,101081.58
2018-07-05T03:33:12.444Z,101085.50
2018-07-05T03:35:52.513Z,101088.64
2018-07-05T03:38:32.698Z,101090.72
2018-07-05T03:41:12.800Z,101083.84
2018-07-05T03:43:52.907Z,101082.64
2018-07-05T03:46:33.097Z,101084.11
2018-07-05T03:49:13.165Z,101083.70
2018-07-05T03:51:53.268Z,101076.00
2018-07-05T03:54:33.359Z,101065.55
2018-07-05T03:57:13.436Z,101067.52
2018-07-05T03:59:53.703Z,101069.62
2018-07-05T04:02:33.864Z,101063.31
2018-07-05T04:05:14.088Z,101057.32
2018-07-05T04:07:54.202Z,101053.06
2018-07-05T04:10:34.388Z,101050.67
2018-07-05T04:13:14.476Z,101045.12
2018-07-05T04:15:54.545Z,101045.50
2018-07-05T04:18:34.833Z,101045.35
2018-07-05T04:21:14.996Z,101045.29
2018-07-05T04:23:55.178Z,101048.19
2018-07-05T04:26:35.415Z,101048.33
2018-07-05T04:29:15.685Z,101052.39
2018-07-05T04:31:55.804Z,101051.33
2018-07-05T04:34:35.872Z,101060.43
2018-07-05T04:37:16.013Z,101057.44
2018-07-05T04:39:56.203Z,101058.58
2018-07-05T04:42:36.410Z,101058.55
2018-07-05T04:45:16.451Z,101058.55
2018-07-05T04:47:56.536Z,101058.89
2018-07-05T04:50:36.621Z,101061.33
2018-07-05T04:53:16.791Z,101062.81
2018-07-05T04:55:56.899Z,101048.33
2018-07-05T04:58:36.981Z,101050.87
2018-07-05T05:01:17.221Z,101055.56
2018-07-05T05:03:57.297Z,101056.77
2018-07-05T05:06:37.423Z,101055.45
2018-07-05T05:09:17.622Z,101048.09
2018-07-05T05:11:57.661Z,101047.91
2018-07-05T05:14:41.365Z,101045.62
2018-07-05T05:17:21.522Z,101045.06
2018-07-05T05:20:01.613Z,101036.22
2018-07-05T05:22:41.845Z,101033.87
2018-07-05T05:25:22.061Z,101036.45
2018-07-05T05:28:02.109Z,101036.39
2018-07-05T05:30:42.245Z,101040.94
2018-07-05T05:33:22.361Z,101039.50
2018-07-05T05:36:02.558Z,101033.17
2018-07-05T05:38:42.874Z,101031.89
2018-07-05T05:41:23.040Z,101030.17
2018-07-05T05:44:03.323Z,101036.94
2018-07-05T05:46:43.539Z,101035.23
2018-07-05T05:49:23.885Z,101042.78
2018-07-05T05:52:04.245Z,101043.84
2018-07-05T05:54:44.400Z,101042.80
2018-07-05T05:57:24.647Z,101034.94
2018-07-05T06:00:04.914Z,101034.88
2018-07-05T06:02:45.182Z,101029.00
2018-07-05T06:05:25.258Z,101031.94
2018-07-05T06:08:07.544Z,101030.03
2018-07-05T06:10:47.756Z,101034.19
2018-07-05T06:13:27.933Z,101025.38
2018-07-05T06:16:08.049Z,101028.97
2018-07-05T06:18:48.090Z,101032.74
2018-07-05T06:21:28.344Z,101031.94
2018-07-05T06:24:08.504Z,101032.50
2018-07-05T06:26:48.642Z,101037.59
2018-07-05T06:29:28.837Z,101037.79
2018-07-05T06:32:09.027Z,101036.86
2018-07-05T06:34:49.233Z,101033.09
2018-07-05T06:37:29.426Z,101035.62
2018-07-05T06:40:10.340Z,101030.91
2018-07-05T06:42:50.638Z,101036.34
2018-07-05T06:45:30.785Z,101036.42
2018-07-05T06:48:11.100Z,101039.39
2018-07-05T06:50:51.424Z,101040.53
2018-07-05T06:53:31.471Z,101033.64
2018-07-05T06:56:11.769Z,101033.23
2018-07-05T06:58:52.056Z,101039.12
2018-07-05T07:01:32.299Z,101044.45
2018-07-05T07:04:12.634Z,101033.95
2018-07-05T07:06:52.701Z,101029.84
2018-07-05T07:09:32.884Z,101029.99
2018-07-05T07:12:13.051Z,101022.45
2018-07-05T07:14:53.201Z,101017.78
2018-07-05T07:17:33.375Z,101015.67
2018-07-05T07:20:13.562Z,101022.16
2018-07-05T07:22:53.629Z,101027.51
2018-07-05T07:25:33.938Z,101027.59
2018-07-05T07:28:14.121Z,101026.77
2018-07-05T07:30:54.409Z,101022.65
2018-07-05T07:33:34.485Z,101010.14
2018-07-05T07:36:14.741Z,101016.29
2018-07-05T07:38:55.017Z,101014.92
2018-07-05T07:41:35.305Z,101013.51
2018-07-05T07:44:03.166Z,101009.32
2018-07-05T07:46:30.950Z,101009.37
2018-07-05T07:48:58.612Z,101008.80
2018-07-05T07:51:26.337Z,101006.30
2018-07-05T07:53:54.155Z,101006.56
2018-07-05T07:56:21.909Z,101012.38
2018-07-05T07:58:49.579Z,101007.11
2018-07-05T08:01:17.304Z,101007.97
2018-07-05T08:03:44.969Z,101004.57
2018-07-05T08:06:12.786Z,101011.52
2018-07-05T08:08:40.455Z,101002.31
2018-07-05T08:11:08.199Z,101003.70
2018-07-05T08:13:35.881Z,101012.00
2018-07-05T08:16:03.551Z,100997.23
2018-07-05T08:18:31.245Z,100998.64
2018-07-05T08:20:58.917Z,101002.48
2018-07-05T08:23:26.685Z,101000.78
2018-07-05T08:25:54.446Z,101001.44
2018-07-05T08:28:22.169Z,101003.17
2018-07-05T08:30:49.809Z,101003.80
2018-07-05T08:33:17.489Z,100995.16
2018-07-05T08:35:45.212Z,100999.34
2018-07-05T08:38:13.005Z,100997.25
2018-07-05T08:40:40.703Z,101005.94
2018-07-05T08:43:08.427Z,100999.33
2018-07-05T08:45:36.091Z,101007.64
2018-07-05T08:48:03.779Z,101004.55
2018-07-05T08:50:31.454Z,101002.59
2018-07-05T08:52:59.175Z,101001.28
2018-07-05T08:55:26.801Z,101005.30
2018-07-05T08:57:54.458Z,100991.34
2018-07-05T09:00:22.122Z,101004.08
2018-07-05T09:02:49.799Z,101003.03
2018-07-05T09:05:17.554Z,100995.43
2018-07-05T09:07:45.215Z,100983.98
2018-07-05T09:10:12.852Z,100987.78
2018-07-05T09:12:40.498Z,100981.62
2018-07-05T09:15:08.097Z,100970.44
2018-07-05T09:17:35.860Z,100980.52
2018-07-05T09:20:03.488Z,100987.14
2018-07-05T09:22:31.205Z,100973.18
2018-07-05T09:24:58.960Z,100971.05
2018-07-05T09:27:26.681Z,100968.92
2018-07-05T09:29:54.353Z,100975.77
2018-07-05T09:32:22.048Z,100980.25
2018-07-05T09:34:49.757Z,100978.06
2018-07-05T09:37:17.596Z,100975.95
2018-07-05T09:39:45.395Z,100968.17
2018-07-05T09:42:13.061Z,100970.06
2018-07-05T09:44:40.764Z,100975.01
2018-07-05T09:47:08.507Z,100964.40
2018-07-05T09:49:36.306Z,100965.42
2018-07-05T09:52:03.964Z,100973.54
2018-07-05T09:54:31.672Z,100967.98
2018-07-05T10:03:41.842Z,100954.96
2018-07-05T10:06:09.527Z,100963.94
2018-07-05T10:08:37.210Z,100962.53
2018-07-05T10:11:04.864Z,100949.42
2018-07-05T10:13:32.909Z,100963.62
2018-07-05T10:16:00.352Z,100959.86
2018-07-05T10:18:28.266Z,100955.63
2018-07-05T10:20:56.026Z,100952.30
2018-07-05T10:23:23.778Z,100953.91
2018-07-05T10:25:51.427Z,100950.49
2018-07-05T10:28:19.141Z,100947.98
2018-07-05T10:30:59.077Z,100956.94
2018-07-05T10:33:41.026Z,100961.38
2018-07-05T10:36:08.666Z,100955.56
2018-07-05T10:38:36.390Z,100947.36
2018-07-05T10:41:16.568Z,100950.31
2018-07-05T10:43:56.810Z,100953.33
2018-07-05T10:46:36.835Z,100955.23
2018-07-05T10:49:17.043Z,100959.96
2018-07-05T10:51:57.289Z,100954.26
2018-07-05T10:54:37.454Z,100948.92
2018-07-05T10:57:17.753Z,100950.02
2018-07-05T10:59:58.044Z,100942.56
2018-07-05T11:02:38.129Z,100944.64
2018-07-05T11:05:18.117Z,100938.23
2018-07-05T11:07:58.195Z,100949.01
2018-07-05T11:10:38.250Z,100944.42
2018-07-05T11:13:18.341Z,100939.09
2018-07-05T11:15:58.528Z,100944.72
2018-07-05T11:18:38.515Z,100944.10
2018-07-05T11:21:18.788Z,100939.34
2018-07-05T11:23:58.782Z,100948.67
2018-07-05T11:26:38.994Z,100939.22
2018-07-05T11:29:19.244Z,100936.75
2018-07-05T11:31:59.469Z,100941.89
2018-07-05T11:34:39.705Z,100937.80
2018-07-05T11:37:19.906Z,100934.08
2018-07-05T11:40:00.122Z,100933.13
2018-07-05T11:42:40.379Z,100934.33
2018-07-05T11:45:21.537Z,100934.14
2018-07-05T11:48:01.678Z,100932.09
2018-07-05T11:50:41.739Z,100929.51
2018-07-05T11:53:22.036Z,100931.27
2018-07-05T11:56:02.077Z,100942.92
2018-07-05T11:58:42.309Z,100937.77
2018-07-05T12:01:22.478Z,100931.20
2018-07-05T12:04:02.615Z,100934.35
2018-07-05T12:06:42.683Z,100927.44
2018-07-05T12:09:22.781Z,100939.47
2018-07-05T12:12:02.938Z,100942.70
2018-07-05T12:14:43.043Z,100935.06
2018-07-05T12:17:23.178Z,100937.91
2018-07-05T12:20:03.199Z,100931.52
2018-07-05T12:22:43.185Z,100930.17
2018-07-05T12:25:23.398Z,100930.01
2018-07-05T12:28:03.562Z,100934.38
2018-07-05T12:30:43.704Z,100932.44
2018-07-05T12:33:23.867Z,100933.55
2018-07-05T12:36:04.033Z,100928.02
2018-07-05T12:38:44.302Z,100926.11
2018-07-05T12:41:24.354Z,100933.09
2018-07-05T12:44:04.545Z,100940.73
2018-07-05T12:46:44.710Z,100940.20
2018-07-05T12:49:24.852Z,100931.80
2018-07-05T12:52:05.066Z,100934.23
2018-07-05T12:54:45.137Z,100929.50
2018-07-05T12:57:25.270Z,100926.48
2018-07-05T13:00:05.380Z,100925.77
2018-07-05T13:02:45.637Z,100933.44
2018-07-05T13:05:25.961Z,100929.52
2018-07-05T13:08:06.036Z,100931.63
2018-07-05T13:10:46.122Z,100931.73
2018-07-05T13:13:26.261Z,100934.15
2018-07-05T13:16:06.288Z,100934.45
2018-07-05T13:18:46.565Z,100937.21
2018-07-05T13:21:26.448Z,100934.92
2018-07-05T13:24:06.637Z,100924.23
2018-07-05T13:26:46.761Z,100917.38
2018-07-05T13:29:26.935Z,100930.69
2018-07-05T13:32:07.132Z,100921.47
2018-07-05T13:34:47.205Z,100924.80
2018-07-05T13:37:27.326Z,100924.17
2018-07-05T13:40:07.331Z,100926.46
2018-07-05T13:42:47.326Z,100934.35
2018-07-05T13:45:27.335Z,100926.02
2018-07-05T13:48:08.255Z,100930.82
2018-07-05T13:50:48.341Z,100926.00
2018-07-05T13:53:28.473Z,100935.30
2018-07-05T13:56:08.509Z,100931.80
2018-07-05T13:58:48.505Z,100936.73
2018-07-05T14:01:28.448Z,100927.80
2018-07-05T14:04:08.736Z,100935.09
2018-07-05T14:06:48.693Z,100928.84
2018-07-05T14:09:28.885Z,100929.69
2018-07-05T14:12:09.030Z,100923.89
2018-07-05T14:14:49.254Z,100925.86
2018-07-05T14:17:29.183Z,100930.64
2018-07-05T14:20:09.345Z,100927.25
2018-07-05T14:22:49.541Z,100926.48
2018-07-05T14:25:29.697Z,100927.40
2018-07-05T14:28:09.937Z,100926.14
2018-07-05T14:30:50.156Z,100930.91
2018-07-05T14:33:30.230Z,100944.50
2018-07-05T14:36:10.165Z,100945.71
2018-07-05T14:38:50.095Z,100943.29
2018-07-05T14:41:30.220Z,100939.25
2018-07-05T14:44:10.327Z,100951.11
2018-07-05T14:46:50.564Z,100950.03
2018-07-05T14:49:30.687Z,100946.56
2018-07-05T14:52:10.859Z,100940.90
2018-07-05T14:54:50.884Z,100954.16
2018-07-05T14:57:30.944Z,100949.05
2018-07-05T15:00:11.095Z,100951.64
2018-07-05T15:02:51.245Z,100963.66
2018-07-05T15:05:31.279Z,100960.22
2018-07-05T15:08:11.623Z,100959.87
2018-07-05T15:10:51.709Z,100954.62
2018-07-05T15:13:31.949Z,100961.23
2018-07-05T15:16:12.349Z,100965.84
2018-07-05T15:18:52.598Z,100965.80
2018-07-05T15:21:32.919Z,100960.44
2018-07-05T15:24:13.028Z,100960.11
2018-07-05T15:26:53.029Z,100966.44
2018-07-05T15:29:33.195Z,100970.08
2018-07-05T15:32:13.373Z,100965.37
2018-07-05T15:34:53.533Z,100971.29
2018-07-05T15:37:33.629Z,100980.47
2018-07-05T15:40:13.876Z,100963.02
2018-07-05T15:42:54.259Z,100978.55
2018-07-05T15:45:34.261Z,100971.29
2018-07-05T15:48:14.412Z,100968.09
2018-07-05T15:50:54.668Z,100970.61
2018-07-05T15:53:34.937Z,100976.76
2018-07-05T15:56:15.016Z,100988.14
2018-07-05T15:58:55.018Z,100975.34
2018-07-05T16:01:35.232Z,100985.71
2018-07-05T16:04:15.454Z,100980.92
2018-07-05T16:06:55.522Z,100988.76
2018-07-05T16:09:35.786Z,100993.41
2018-07-05T16:12:15.932Z,100997.80
2018-07-05T16:14:55.873Z,100993.92
2018-07-05T16:17:35.933Z,100998.66
2018-07-05T16:20:16.314Z,100997.88
2018-07-05T16:22:56.370Z,100996.73
2018-07-05T16:25:36.525Z,100982.56
2018-07-05T16:28:16.713Z,100981.72
2018-07-05T16:30:56.973Z,100987.30
2018-07-05T16:33:38.012Z,100992.03
2018-07-05T16:36:18.041Z,100979.29
2018-07-05T16:38:58.127Z,100971.50
2018-07-05T16:41:38.284Z,100979.56
2018-07-05T16:44:18.481Z,100976.75
2018-07-05T16:46:58.678Z,100981.78
2018-07-05T16:49:38.778Z,100980.12
2018-07-05T16:52:18.836Z,100976.75
2018-07-05T16:54:59.109Z,100978.16
2018-07-05T16:57:39.171Z,100983.44
2018-07-05T17:00:19.099Z,100984.02
2018-07-05T17:02:59.362Z,100989.02
2018-07-05T17:05:39.538Z,100991.25
2018-07-05T17:08:19.635Z,100989.86
2018-07-05T17:10:59.825Z,100993.17
2018-07-05T17:13:40.014Z,101007.61
2018-07-05T17:16:20.084Z,101000.11
2018-07-05T17:19:00.343Z,100998.69
2018-07-05T17:21:40.633Z,101004.24
2018-07-05T17:24:20.748Z,101006.77
2018-07-05T17:27:01.041Z,100992.87
2018-07-05T17:29:41.190Z,100994.81
2018-07-05T17:32:21.234Z,101006.18
2018-07-05T17:35:01.262Z,101002.00
2018-07-05T17:37:41.509Z,101001.52
2018-07-05T17:40:21.648Z,101006.87
2018-07-05T17:43:01.789Z,101010.47
2018-07-05T17:45:41.982Z,101005.83
2018-07-05T17:48:22.053Z,101010.45
2018-07-05T17:51:02.198Z,100999.16
2018-07-05T17:53:42.379Z,101004.53
2018-07-05T17:56:22.450Z,101005.36
2018-07-05T17:59:02.793Z,101010.84
2018-07-05T18:01:42.619Z,101013.06
2018-07-05T18:04:22.778Z,101004.17
2018-07-05T18:07:02.966Z,101010.84
2018-07-05T18:09:42.955Z,101015.30
2018-07-05T18:12:23.025Z,101014.28
2018-07-05T18:15:03.069Z,101006.16
2018-07-05T18:17:43.248Z,101010.98
2018-07-05T18:20:23.445Z,101003.47
2018-07-05T18:23:03.496Z,101012.17
2018-07-05T18:25:43.771Z,101017.72
2018-07-05T18:28:23.817Z,101019.02
2018-07-05T18:31:03.793Z,101011.28
2018-07-05T18:33:43.744Z,101017.17
2018-07-05T18:36:23.841Z,101023.93
2018-07-05T18:39:03.932Z,101034.47
2018-07-05T18:41:44.089Z,101035.52
2018-07-05T18:44:24.319Z,101038.57
2018-07-05T18:47:04.467Z,101046.89
2018-07-05T18:49:45.237Z,101046.91
2018-07-05T18:52:25.457Z,101053.08
2018-07-05T18:55:05.561Z,101058.52
2018-07-05T18:57:45.615Z,101061.79
2018-07-05T19:00:25.787Z,101070.42
2018-07-05T19:03:06.057Z,101069.69
2018-07-05T19:05:46.213Z,101070.62
2018-07-05T19:08:26.595Z,101067.90
2018-07-05T19:11:06.841Z,101066.56
2018-07-05T19:13:46.908Z,101069.34
2018-07-05T19:16:27.309Z,101075.76
2018-07-05T19:19:07.335Z,101078.75
2018-07-05T19:21:47.665Z,101081.97
2018-07-05T19:24:27.584Z,101089.30
2018-07-05T19:27:07.808Z,101088.19
2018-07-05T19:29:48.078Z,101099.20
2018-07-05T19:32:28.558Z,101093.84
2018-07-05T19:35:08.668Z,101094.55
2018-07-05T19:37:48.987Z,101100.56
2018-07-05T19:40:29.209Z,101106.52
2018-07-05T19:43:09.321Z,101104.80
2018-07-05T19:45:49.426Z,101104.46
2018-07-05T19:48:29.625Z,101104.91
2018-07-05T19:51:09.645Z,101102.14
2018-07-05T19:53:49.674Z,101112.30
2018-07-05T19:56:29.856Z,101115.75
2018-07-05T19:59:10.125Z,101115.07
2018-07-05T20:01:50.105Z,101127.66
2018-07-05T20:04:30.237Z,101125.94
2018-07-05T20:07:10.414Z,101123.52
2018-07-05T20:09:50.593Z,101124.78
2018-07-05T20:12:30.670Z,101121.67
2018-07-05T20:15:11.022Z,101130.77
2018-07-05T20:17:51.158Z,101130.66
2018-07-05T20:20:31.336Z,101128.92
2018-07-05T20:23:11.604Z,101139.70
2018-07-05T20:25:51.850Z,101140.41
2018-07-05T20:28:31.974Z,101141.92
2018-07-05T20:31:11.991Z,101142.89
2018-07-05T20:33:52.085Z,101138.66
2018-07-05T20:36:32.442Z,101141.70
2018-07-05T20:39:12.561Z,101132.65
2018-07-05T20:41:52.678Z,101134.58
2018-07-05T20:44:32.858Z,101132.23
2018-07-05T20:47:13.002Z,101142.39
2018-07-05T20:49:53.140Z,101138.21
2018-07-05T20:52:33.337Z,101137.38
2018-07-05T20:55:13.537Z,101138.24
2018-07-05T20:57:53.679Z,101150.09
2018-07-05T21:00:33.917Z,101154.47
2018-07-05T21:03:14.134Z,101144.77
2018-07-05T21:05:54.435Z,101145.31
2018-07-05T21:08:34.652Z,101140.01
2018-07-05T21:11:14.729Z,101141.65
2018-07-05T21:13:54.938Z,101138.53
2018-07-05T21:16:35.004Z,101138.21
2018-07-05T21:19:14.991Z,101138.21
2018-07-05T21:21:55.108Z,101140.97
2018-07-05T21:24:36.556Z,101137.34
2018-07-05T21:27:16.608Z,101137.34
2018-07-05T21:29:56.545Z,101149.22
2018-07-05T21:32:36.505Z,101146.40
2018-07-05T21:35:16.709Z,101147.20
2018-07-05T21:37:56.682Z,101146.88
2018-07-05T21:40:36.768Z,101148.87
2018-07-05T21:43:16.743Z,101148.87
2018-07-05T21:45:56.818Z,101141.61
2018-07-05T21:48:37.102Z,101145.69
2018-07-05T21:51:17.137Z,101150.30
2018-07-05T21:53:57.093Z,101153.91
2018-07-05T21:56:37.315Z,101158.55
2018-07-05T21:59:17.338Z,101162.85
2018-07-05T22:01:57.442Z,101161.91
2018-07-05T22:04:37.578Z,101159.34
2018-07-05T22:07:17.623Z,101157.89
2018-07-05T22:09:57.856Z,101162.21
2018-07-05T22:12:37.927Z,101158.80
2018-07-05T22:15:17.976Z,101164.00
2018-07-05T22:18:03.296Z,101169.77
2018-07-05T22:20:49.770Z,101165.92
2018-07-05T22:23:34.871Z,101159.63
2018-07-05T22:26:20.136Z,101167.30
2018-07-05T22:29:05.270Z,101163.34
2018-07-05T22:31:45.519Z,101163.30
2018-07-05T22:34:25.602Z,101174.27
2018-07-05T22:37:05.685Z,101182.14
2018-07-05T22:39:46.001Z,101175.34
2018-07-05T22:42:26.275Z,101179.41
2018-07-05T22:45:06.371Z,101177.67
2018-07-05T22:47:46.395Z,101179.84
2018-07-05T22:50:26.403Z,101184.66
2018-07-05T22:53:06.581Z,101185.75
2018-07-05T22:55:46.412Z,101191.27
2018-07-05T22:58:26.544Z,101187.96
2018-07-05T23:01:06.499Z,101194.86
2018-07-05T23:03:46.694Z,101195.94
2018-07-05T23:06:26.982Z,101191.36
2018-07-05T23:09:07.129Z,101195.20
2018-07-05T23:11:47.171Z,101203.94
2018-07-05T23:14:27.344Z,101208.91
2018-07-05T23:17:07.471Z,101209.25
2018-07-05T23:19:47.640Z,101215.47
2018-07-05T23:22:27.891Z,101211.18
2018-07-05T23:25:08.091Z,101208.05
2018-07-05T23:27:48.763Z,101205.70
2018-07-05T23:30:28.755Z,101209.76
2018-07-05T23:33:08.881Z,101208.92
2018-07-05T23:35:49.143Z,101200.03
2018-07-05T23:38:29.170Z,101199.73
2018-07-05T23:41:09.162Z,101200.98
2018-07-05T23:43:49.358Z,101196.39
2018-07-05T23:46:29.605Z,101197.92
2018-07-05T23:49:09.756Z,101195.92
2018-07-05T23:51:49.909Z,101194.55
2018-07-05T23:54:29.930Z,101198.63
2018-07-05T23:57:10.101Z,101203.30
2018-07-05T23:59:50.344Z,101201.59
